Airfield :
LOGIN :

Register | Disclaimer

   EN    FR    IT 

 










Legend :    VFR   Marginal VFR   IFR   Intensive IFR   Very Intensive IFR
Visi :
Ceiling :
>= 8 km
>= 3000ft
5 to 8 km
1000 to 3000 ft
1500m to 5 km
500 to 1000 ft
800 to 1500m
200 to 500 ft
< 800m
< 200 ft
Symbols :   Thunderstorms  Fog  Heavy snow  Heavy precipitations  Wind > 20 kt
SIGMETs :     Misc.  Thunderstorms  Icing  Turbulence  Mountain Waves  Volcanic Ashes







- Airport Elevation : 1470 ft
- IATA code : KLU


LOWK - Klagenfurt

CURRENT METAR :
  • 231350Z VRB02KT 9999 FEW060 07/M02 Q1024 R10L/19//95 NOSIG

EXPIRED METARs :
  • 231320Z 11003KT 070V150 9999 FEW060 06/M02 Q1024 R10L/19//95 NOSIG
  • 231250Z 13003KT 040V180 9999 FEW060 05/M03 Q1024 R10L/19//95 NOSIG
  • 231220Z VRB02KT 9999 FEW060 05/M02 Q1024 R10L/19//95 NOSIG
  • 231150Z VRB02KT 9999 FEW060 04/M03 Q1024 R10L/19//95 NOSIG
  • 231120Z VRB02KT 9999 FEW060 04/M04 Q1023 R10L/19//95 NOSIG

TAF TAF LOWK
Valid from the 23 at 12:00 until the 24 at 12:00 UTC


231115Z 2312/2412 VRB02KT 9999 FEW060 TX07/2315Z TNM02/2406Z
TEMPO 2312/2316 34008KT
TEMPO 2402/2408 1200 FZBCFG SCT002
No reported NOTAMs for that airfield.



MET'MAP, your aeronautical weather chart ! - Copyright ORBIFLY December 2007 - Disclaimer

ORBIFLY MET'MAP TEAM :

Programming & Development : Alexandra Zaïnal
Concept & Development : Baudouin d'Aumeries
Co-Development & Prog : Marc-Olivier Méhu
Technical & hardware support : Manuel Goepfert

Contact : metmap@orbifly.com




SOURCES & CREDITS :

   NOAA